createdAt,value
2018-02-14T00:00:09.945Z,-0.21
2018-02-14T00:01:15.288Z,-0.14
2018-02-14T00:02:20.254Z,-0.21
2018-02-14T00:03:26.779Z,-0.17
2018-02-14T00:04:31.665Z,-0.14
2018-02-14T00:05:36.956Z,-0.13
2018-02-14T00:06:42.878Z,-0.11
2018-02-14T00:07:47.182Z,-0.07
2018-02-14T00:08:52.247Z,-0.16
2018-02-14T00:09:57.090Z,-0.19
2018-02-14T00:11:02.595Z,-0.30
2018-02-14T00:12:07.365Z,-0.24
2018-02-14T00:13:13.150Z,-0.24
2018-02-14T00:14:17.916Z,-0.24
2018-02-14T00:15:22.950Z,-0.24
2018-02-14T00:16:27.925Z,-0.31
2018-02-14T00:17:32.803Z,-0.25
2018-02-14T00:18:37.696Z,-0.29
2018-02-14T00:19:42.898Z,-0.31
2018-02-14T00:20:47.782Z,-0.34
2018-02-14T00:21:52.655Z,-0.32
2018-02-14T00:22:58.223Z,-0.38
2018-02-14T00:24:03.169Z,-0.41
2018-02-14T00:25:08.617Z,-0.44
2018-02-14T00:26:13.294Z,-0.39
2018-02-14T00:27:31.222Z,-0.38
2018-02-14T00:28:36.576Z,-0.32
2018-02-14T00:29:42.052Z,-0.47
2018-02-14T00:30:47.687Z,-0.43
2018-02-14T00:31:53.211Z,-0.35
2018-02-14T00:32:58.184Z,-0.45
2018-02-14T00:34:03.618Z,-0.58
2018-02-14T00:35:08.449Z,-0.64
2018-02-14T00:36:13.913Z,-0.65
2018-02-14T00:37:19.715Z,-0.51
2018-02-14T00:38:26.146Z,-0.49
2018-02-14T00:39:31.381Z,-0.40
2018-02-14T00:40:40.830Z,-0.38
2018-02-14T00:41:46.774Z,-0.44
2018-02-14T00:42:52.296Z,-0.42
2018-02-14T00:43:57.017Z,-0.40
2018-02-14T00:45:03.946Z,-0.39
2018-02-14T00:46:09.139Z,-0.30
2018-02-14T00:47:14.002Z,-0.25
2018-02-14T00:48:19.610Z,-0.34
2018-02-14T00:49:24.416Z,-0.25
2018-02-14T00:50:29.533Z,-0.25
2018-02-14T00:51:34.984Z,-0.27
2018-02-14T00:52:39.920Z,-0.29
2018-02-14T00:53:47.273Z,-0.34
2018-02-14T00:54:53.042Z,-0.35
2018-02-14T00:55:58.238Z,-0.45
2018-02-14T00:57:04.016Z,-0.38
2018-02-14T00:58:08.949Z,-0.47
2018-02-14T00:59:13.558Z,-0.54
2018-02-14T01:00:18.892Z,-0.56
2018-02-14T01:01:24.363Z,-0.53
2018-02-14T01:02:31.943Z,-0.47
2018-02-14T01:03:36.799Z,-0.52
2018-02-14T01:04:41.633Z,-0.58
2018-02-14T01:05:46.672Z,-0.58
2018-02-14T01:06:51.694Z,-0.62
2018-02-14T01:07:57.192Z,-0.71
2018-02-14T01:09:02.811Z,-0.63
2018-02-14T01:10:08.254Z,-0.56
2018-02-14T01:11:13.215Z,-0.59
2018-02-14T01:12:18.089Z,-0.57
2018-02-14T01:13:22.548Z,-0.65
2018-02-14T01:14:27.356Z,-0.68
2018-02-14T01:15:34.358Z,-0.74
2018-02-14T01:16:39.902Z,-0.77
2018-02-14T01:17:45.053Z,-0.78
2018-02-14T01:18:49.267Z,-0.78
2018-02-14T01:19:58.319Z,-0.77
2018-02-14T01:21:04.033Z,-0.84
2018-02-14T01:22:09.464Z,-0.80
2018-02-14T01:23:14.791Z,-0.78
2018-02-14T01:24:20.106Z,-0.62
2018-02-14T01:25:25.023Z,-0.64
2018-02-14T01:26:30.504Z,-0.69
2018-02-14T01:27:37.507Z,-0.72
2018-02-14T01:28:42.298Z,-0.66
2018-02-14T01:29:47.242Z,-0.66
2018-02-14T01:30:52.655Z,-0.60
2018-02-14T01:31:58.129Z,-0.57
2018-02-14T01:33:03.667Z,-0.56
2018-02-14T01:34:09.923Z,-0.62
2018-02-14T01:35:15.663Z,-0.58
2018-02-14T01:36:20.248Z,-0.62
2018-02-14T01:37:25.162Z,-0.77
2018-02-14T01:38:29.849Z,-0.70
2018-02-14T01:39:35.279Z,-0.65
2018-02-14T01:40:40.415Z,-0.71
2018-02-14T01:41:45.339Z,-0.69
2018-02-14T01:42:50.827Z,-0.73
2018-02-14T01:43:56.419Z,-0.77
2018-02-14T01:45:03.470Z,-0.70
2018-02-14T01:46:07.712Z,-0.70
2018-02-14T01:47:12.945Z,-0.77
2018-02-14T01:48:17.757Z,-0.86
2018-02-14T01:49:23.124Z,-0.88
2018-02-14T01:50:37.420Z,-0.80
2018-02-14T01:51:42.236Z,-0.79
2018-02-14T01:52:48.591Z,-0.81
2018-02-14T01:53:53.914Z,-0.83
2018-02-14T01:54:59.266Z,-0.77
2018-02-14T01:56:04.131Z,-0.80
2018-02-14T01:57:09.566Z,-0.81
2018-02-14T01:58:14.457Z,-0.83
2018-02-14T01:59:19.283Z,-0.81
2018-02-14T02:00:36.457Z,-0.85
2018-02-14T02:01:41.527Z,-0.87
2018-02-14T02:02:46.948Z,-0.90
2018-02-14T02:03:51.860Z,-0.94
2018-02-14T02:04:57.241Z,-0.92
2018-02-14T02:06:02.317Z,-1.03
2018-02-14T02:07:07.257Z,-1.05
2018-02-14T02:08:12.070Z,-1.02
2018-02-14T02:09:17.089Z,-0.98
2018-02-14T02:10:22.575Z,-0.98
2018-02-14T02:11:27.394Z,-0.95
2018-02-14T02:12:33.275Z,-0.97
2018-02-14T02:13:38.222Z,-1.05
2018-02-14T02:14:43.738Z,-1.09
2018-02-14T02:15:49.881Z,-1.05
2018-02-14T02:16:55.457Z,-1.03
2018-02-14T02:18:00.849Z,-1.04
2018-02-14T02:19:07.930Z,-1.02
2018-02-14T02:20:14.259Z,-1.05
2018-02-14T02:21:19.031Z,-1.05
2018-02-14T02:22:31.951Z,-1.01
2018-02-14T02:23:36.221Z,-1.11
2018-02-14T02:24:42.081Z,-1.21
2018-02-14T02:25:47.975Z,-1.15
2018-02-14T02:26:53.685Z,-1.12
2018-02-14T02:27:59.078Z,-1.14
2018-02-14T02:29:03.317Z,-1.13
2018-02-14T02:30:12.376Z,-1.20
2018-02-14T02:31:17.127Z,-1.33
2018-02-14T02:32:23.473Z,-1.36
2018-02-14T02:33:28.197Z,-1.42
2018-02-14T02:34:33.848Z,-1.31
2018-02-14T02:35:38.453Z,-1.28
2018-02-14T02:36:43.915Z,-1.16
2018-02-14T02:37:48.828Z,-1.18
2018-02-14T02:38:54.349Z,-1.19
2018-02-14T02:40:09.418Z,-1.28
2018-02-14T02:41:14.629Z,-1.39
2018-02-14T02:42:19.498Z,-1.39
2018-02-14T02:43:25.628Z,-1.38
2018-02-14T02:44:29.947Z,-1.32
2018-02-14T02:45:36.866Z,-1.30
2018-02-14T02:46:42.123Z,-1.31
2018-02-14T02:47:47.533Z,-1.24
2018-02-14T02:48:52.998Z,-1.23
2018-02-14T02:50:00.374Z,-1.25
2018-02-14T02:51:07.720Z,-1.31
2018-02-14T02:52:13.031Z,-1.33
2018-02-14T02:53:22.101Z,-1.46
2018-02-14T02:54:31.642Z,-1.53
2018-02-14T02:55:37.047Z,-1.43
2018-02-14T02:56:41.620Z,-1.43
2018-02-14T02:57:47.053Z,-1.41
2018-02-14T02:58:53.151Z,-1.38
2018-02-14T03:00:01.074Z,-1.35
2018-02-14T03:01:07.238Z,-1.39
2018-02-14T03:02:14.714Z,-1.39
2018-02-14T03:03:20.163Z,-1.49
2018-02-14T03:04:24.904Z,-1.45
2018-02-14T03:05:31.922Z,-1.40
2018-02-14T03:06:37.190Z,-1.59
2018-02-14T03:07:42.547Z,-1.62
2018-02-14T03:08:56.361Z,-1.56
2018-02-14T03:10:02.718Z,-1.40
2018-02-14T03:11:07.979Z,-1.55
2018-02-14T03:12:12.642Z,-1.63
2018-02-14T03:13:23.835Z,-1.53
2018-02-14T03:14:28.565Z,-1.48
2018-02-14T03:15:33.693Z,-1.52
2018-02-14T03:16:38.402Z,-1.53
2018-02-14T03:17:43.272Z,-1.60
2018-02-14T03:18:48.097Z,-1.53
2018-02-14T03:19:52.621Z,-1.44
2018-02-14T03:20:58.571Z,-1.39
2018-02-14T03:22:03.911Z,-1.48
2018-02-14T03:23:09.314Z,-1.62
2018-02-14T03:24:15.889Z,-1.76
2018-02-14T03:25:21.833Z,-1.92
2018-02-14T03:26:27.052Z,-1.86
2018-02-14T03:27:32.431Z,-1.84
2018-02-14T03:28:37.305Z,-1.78
2018-02-14T03:29:42.704Z,-1.82
2018-02-14T03:30:48.323Z,-1.92
2018-02-14T03:31:53.974Z,-1.89
2018-02-14T03:32:59.710Z,-1.79
2018-02-14T03:34:09.335Z,-1.81
2018-02-14T03:35:15.672Z,-1.73
2018-02-14T03:36:21.208Z,-1.70
2018-02-14T03:37:28.094Z,-1.70
2018-02-14T03:38:34.854Z,-1.54
2018-02-14T03:39:40.291Z,-1.63
2018-02-14T03:40:45.813Z,-1.69
2018-02-14T03:41:50.024Z,-1.66
2018-02-14T03:42:57.206Z,-1.82
2018-02-14T03:44:01.947Z,-1.82
2018-02-14T03:45:08.246Z,-1.82
2018-02-14T03:46:12.740Z,-1.75
2018-02-14T03:47:16.899Z,-1.80
2018-02-14T03:48:21.074Z,-1.76
2018-02-14T03:49:26.816Z,-1.75
2018-02-14T03:50:31.412Z,-1.73
2018-02-14T03:51:36.419Z,-1.59
2018-02-14T03:52:42.114Z,-1.66
2018-02-14T03:53:46.676Z,-1.54
2018-02-14T03:54:51.274Z,-1.47
2018-02-14T03:55:56.573Z,-1.50
2018-02-14T03:57:02.103Z,-1.61
2018-02-14T03:58:07.703Z,-1.57
2018-02-14T03:59:15.242Z,-1.64
2018-02-14T04:00:22.512Z,-1.69
2018-02-14T04:01:28.084Z,-1.73
2018-02-14T04:02:34.056Z,-1.73
2018-02-14T04:03:40.023Z,-1.66
2018-02-14T04:04:44.757Z,-1.62
2018-02-14T04:05:49.130Z,-1.69
2018-02-14T04:06:54.279Z,-1.75
2018-02-14T04:08:00.698Z,-1.64
2018-02-14T04:09:06.055Z,-1.66
2018-02-14T04:10:12.120Z,-1.72
2018-02-14T04:11:26.264Z,-1.75
2018-02-14T04:12:32.105Z,-1.75
2018-02-14T04:13:37.018Z,-1.70
2018-02-14T04:14:41.243Z,-1.70
2018-02-14T04:15:46.643Z,-1.75
2018-02-14T04:16:51.415Z,-1.74
2018-02-14T04:17:57.357Z,-1.81
2018-02-14T04:19:02.798Z,-1.82
2018-02-14T04:20:07.830Z,-1.82
2018-02-14T04:21:12.826Z,-1.59
2018-02-14T04:22:17.317Z,-1.61
2018-02-14T04:23:22.234Z,-1.66
2018-02-14T04:24:27.153Z,-1.71
2018-02-14T04:25:32.200Z,-1.65
2018-02-14T04:26:38.515Z,-1.58
2018-02-14T04:27:43.363Z,-1.61
2018-02-14T04:28:48.139Z,-1.59
2018-02-14T04:29:52.923Z,-1.52
2018-02-14T04:30:58.605Z,-1.51
2018-02-14T04:32:04.096Z,-1.51
2018-02-14T04:33:09.189Z,-1.52
2018-02-14T04:34:13.414Z,-1.56
2018-02-14T04:35:18.157Z,-1.61
2018-02-14T04:36:23.368Z,-1.68
2018-02-14T04:37:28.226Z,-1.68
2018-02-14T04:38:33.848Z,-1.67
2018-02-14T04:39:39.074Z,-1.64
2018-02-14T04:40:43.891Z,-1.59
2018-02-14T04:41:48.136Z,-1.62
2018-02-14T04:42:52.472Z,-1.69
2018-02-14T04:43:57.648Z,-1.74
2018-02-14T04:45:03.344Z,-1.67
2018-02-14T04:46:08.712Z,-1.66
2018-02-14T04:47:14.219Z,-1.72
2018-02-14T04:48:22.310Z,-1.67
2018-02-14T04:49:27.120Z,-1.71
2018-02-14T04:50:33.731Z,-1.71
2018-02-14T04:51:39.260Z,-1.66
2018-02-14T04:52:45.303Z,-1.74
2018-02-14T04:53:50.516Z,-1.78
2018-02-14T04:54:57.077Z,-1.73
2018-02-14T04:56:03.254Z,-1.73
2018-02-14T04:57:09.759Z,-1.78
2018-02-14T04:58:15.182Z,-1.80
2018-02-14T04:59:19.949Z,-1.78
2018-02-14T05:00:24.893Z,-1.76
2018-02-14T05:01:29.133Z,-1.75
2018-02-14T05:02:34.700Z,-1.77
2018-02-14T05:03:40.141Z,-1.84
2018-02-14T05:04:44.621Z,-1.84
2018-02-14T05:05:49.432Z,-1.78
2018-02-14T05:06:53.568Z,-1.78
2018-02-14T05:07:58.544Z,-1.84
2018-02-14T05:09:05.146Z,-1.90
2018-02-14T05:10:12.003Z,-1.92
2018-02-14T05:11:16.809Z,-1.89
2018-02-14T05:12:24.028Z,-1.83
2018-02-14T05:13:28.308Z,-1.88
2018-02-14T05:14:35.888Z,-1.86
2018-02-14T05:15:40.519Z,-1.85
2018-02-14T05:16:45.665Z,-1.89
2018-02-14T05:17:50.525Z,-1.84
2018-02-14T05:18:56.028Z,-1.86
2018-02-14T05:20:01.457Z,-1.87
2018-02-14T05:21:06.884Z,-2.13
2018-02-14T05:22:16.493Z,-2.12
2018-02-14T05:23:21.765Z,-2.02
2018-02-14T05:24:26.608Z,-1.93
2018-02-14T05:25:33.352Z,-1.87
2018-02-14T05:26:38.660Z,-1.89
2018-02-14T05:27:43.562Z,-1.86
2018-02-14T05:28:49.380Z,-1.80
2018-02-14T05:29:54.588Z,-1.80
2018-02-14T05:31:00.249Z,-1.90
2018-02-14T05:32:05.109Z,-1.94
2018-02-14T05:33:12.741Z,-1.94
2018-02-14T05:34:17.652Z,-1.99
2018-02-14T05:35:22.988Z,-2.05
2018-02-14T05:36:27.780Z,-2.01
2018-02-14T05:37:33.703Z,-2.09
2018-02-14T05:38:38.694Z,-2.10
2018-02-14T05:39:44.488Z,-2.05
2018-02-14T05:40:48.646Z,-2.00
2018-02-14T05:41:54.388Z,-1.97
2018-02-14T05:42:59.652Z,-1.99
2018-02-14T05:44:04.470Z,-1.98
2018-02-14T05:45:12.396Z,-1.98
2018-02-14T05:46:17.842Z,-2.01
2018-02-14T05:47:22.719Z,-2.01
2018-02-14T05:48:35.431Z,-1.96
2018-02-14T05:49:40.862Z,-1.97
2018-02-14T05:50:46.446Z,-1.96
2018-02-14T05:51:51.294Z,-2.01
2018-02-14T05:52:56.306Z,-2.09
2018-02-14T05:54:02.344Z,-2.04
2018-02-14T05:55:07.239Z,-2.05
2018-02-14T05:56:13.477Z,-2.10
2018-02-14T05:57:17.656Z,-2.09
2018-02-14T05:58:22.476Z,-2.00
2018-02-14T05:59:34.194Z,-2.02
2018-02-14T06:00:47.066Z,-2.01
2018-02-14T06:01:52.619Z,-2.02
2018-02-14T06:03:10.782Z,-1.99
2018-02-14T06:04:16.510Z,-2.02
2018-02-14T06:06:48.032Z,-2.05
2018-02-14T06:07:52.447Z,-2.08
2018-02-14T06:08:56.630Z,-2.05
2018-02-14T06:10:01.976Z,-2.06
2018-02-14T06:11:06.949Z,-2.05
2018-02-14T06:12:11.731Z,-2.12
2018-02-14T06:13:16.824Z,-2.09
2018-02-14T06:14:21.688Z,-2.03
2018-02-14T06:15:27.437Z,-2.00
2018-02-14T06:16:32.215Z,-1.97
2018-02-14T06:17:37.289Z,-2.02
2018-02-14T06:18:42.122Z,-1.99
2018-02-14T06:19:46.858Z,-2.01
2018-02-14T06:20:52.280Z,-2.09
2018-02-14T06:21:57.488Z,-2.10
2018-02-14T06:23:03.445Z,-2.12
2018-02-14T06:24:19.150Z,-2.11
2018-02-14T06:25:24.589Z,-2.16
2018-02-14T06:26:29.445Z,-2.09
2018-02-14T06:27:34.875Z,-2.03
2018-02-14T06:28:41.563Z,-2.03
2018-02-14T06:29:46.721Z,-1.98
2018-02-14T06:30:52.652Z,-2.02
2018-02-14T06:31:57.783Z,-2.01
2018-02-14T06:33:02.069Z,-1.98
2018-02-14T06:34:09.701Z,-1.96
2018-02-14T06:35:14.363Z,-2.06
2018-02-14T06:36:18.795Z,-2.08
2018-02-14T06:37:23.525Z,-2.06
2018-02-14T06:38:28.978Z,-2.02
2018-02-14T06:39:34.440Z,-1.96
2018-02-14T06:40:39.328Z,-1.95
2018-02-14T06:41:43.709Z,-1.95
2018-02-14T06:42:49.833Z,-1.97
2018-02-14T06:43:54.612Z,-1.97
2018-02-14T06:44:59.642Z,-1.92
2018-02-14T06:46:04.064Z,-1.92
2018-02-14T06:47:08.554Z,-1.99
2018-02-14T06:48:14.443Z,-2.01
2018-02-14T06:49:19.377Z,-1.96
2018-02-14T06:50:26.073Z,-1.95
2018-02-14T06:51:31.170Z,-2.02
2018-02-14T06:52:36.174Z,-1.95
2018-02-14T06:53:40.972Z,-1.95
2018-02-14T06:54:46.577Z,-1.91
2018-02-14T06:55:53.242Z,-1.93
2018-02-14T06:56:58.584Z,-1.94
2018-02-14T06:58:04.229Z,-1.94
2018-02-14T06:59:09.905Z,-1.91
2018-02-14T07:00:17.746Z,-1.92
2018-02-14T07:01:22.451Z,-1.89
2018-02-14T07:02:27.932Z,-1.82
2018-02-14T07:03:33.791Z,-1.79
2018-02-14T07:04:37.980Z,-1.76
2018-02-14T07:05:45.551Z,-1.75
2018-02-14T07:06:50.495Z,-1.73
2018-02-14T07:07:56.056Z,-1.70
2018-02-14T07:09:00.714Z,-1.66
2018-02-14T07:10:05.877Z,-1.50
2018-02-14T07:11:11.413Z,-1.39
2018-02-14T07:12:17.429Z,-1.31
2018-02-14T07:13:23.360Z,-1.18
2018-02-14T07:14:28.292Z,-1.06
2018-02-14T07:15:32.933Z,-0.96
2018-02-14T07:16:37.690Z,-0.89
2018-02-14T07:17:42.559Z,-0.86
2018-02-14T07:18:50.226Z,-0.67
2018-02-14T07:19:54.356Z,-0.56
2018-02-14T07:21:00.038Z,-0.49
2018-02-14T07:22:05.463Z,-0.33
2018-02-14T07:23:12.206Z,-0.24
2018-02-14T07:24:18.300Z,-0.25
2018-02-14T07:25:22.632Z,-0.38
2018-02-14T07:26:27.126Z,-0.26
2018-02-14T07:27:32.034Z,0.02
2018-02-14T07:28:38.819Z,0.07
2018-02-14T07:29:45.055Z,0.18
2018-02-14T07:30:50.911Z,0.25
2018-02-14T07:31:55.808Z,0.37
2018-02-14T07:33:02.507Z,0.30
2018-02-14T07:34:08.366Z,0.39
2018-02-14T07:35:12.583Z,0.52
2018-02-14T07:36:25.379Z,0.67
2018-02-14T07:37:31.163Z,0.88
2018-02-14T07:38:35.951Z,1.01
2018-02-14T07:39:40.838Z,1.10
2018-02-14T07:40:46.983Z,1.28
2018-02-14T07:41:52.812Z,1.34
2018-02-14T07:42:58.317Z,1.46
2018-02-14T07:44:03.056Z,1.50
2018-02-14T07:46:29.695Z,1.59
2018-02-14T07:47:34.560Z,1.58
2018-02-14T07:48:38.735Z,1.56
2018-02-14T07:49:45.089Z,1.58
2018-02-14T07:50:54.655Z,1.63
2018-02-14T07:51:59.024Z,1.38
2018-02-14T07:53:03.986Z,1.66
2018-02-14T07:54:08.445Z,1.87
2018-02-14T07:55:14.420Z,1.96
2018-02-14T07:56:20.208Z,2.12
2018-02-14T07:57:25.039Z,2.14
2018-02-14T07:58:30.079Z,2.24
2018-02-14T07:59:34.356Z,2.19
2018-02-14T08:00:40.910Z,2.21
2018-02-14T08:01:45.355Z,1.77
2018-02-14T08:02:51.193Z,1.56
2018-02-14T08:03:56.488Z,1.59
2018-02-14T08:05:02.538Z,2.03
2018-02-14T08:06:06.788Z,2.33
2018-02-14T08:07:13.395Z,2.50
2018-02-14T08:08:18.466Z,2.07
2018-02-14T08:09:23.820Z,2.18
2018-02-14T08:10:27.992Z,1.94
2018-02-14T08:11:33.774Z,2.06
2018-02-14T08:12:39.633Z,2.09
2018-02-14T08:13:46.018Z,2.54
2018-02-14T08:14:50.174Z,3.04
2018-02-14T08:15:54.984Z,3.38
2018-02-14T08:17:00.294Z,3.48
2018-02-14T08:18:04.420Z,3.55
2018-02-14T08:19:09.945Z,3.49
2018-02-14T08:20:14.162Z,3.35
2018-02-14T08:21:19.012Z,3.30
2018-02-14T08:22:23.514Z,3.40
2018-02-14T08:23:30.146Z,3.48
2018-02-14T08:24:35.781Z,3.51
2018-02-14T08:25:40.588Z,3.10
2018-02-14T08:26:46.928Z,3.06
2018-02-14T08:27:52.265Z,2.91
2018-02-14T08:28:59.510Z,3.06
2018-02-14T08:30:06.443Z,2.98
2018-02-14T08:31:12.031Z,2.90
2018-02-14T08:32:17.857Z,2.76
2018-02-14T08:33:23.120Z,2.67
2018-02-14T08:34:28.158Z,2.87
2018-02-14T08:35:32.913Z,3.20
2018-02-14T08:36:38.414Z,3.25
2018-02-14T08:37:43.911Z,3.27
2018-02-14T08:38:49.599Z,3.20
2018-02-14T08:39:55.665Z,3.35
2018-02-14T08:41:00.836Z,3.50
2018-02-14T08:42:05.680Z,3.66
2018-02-14T08:43:12.404Z,3.52
2018-02-14T08:44:17.868Z,3.63
2018-02-14T08:45:23.181Z,3.58
2018-02-14T08:46:28.975Z,3.56
2018-02-14T08:47:33.709Z,3.70
2018-02-14T08:48:38.515Z,3.99
2018-02-14T08:49:43.782Z,4.04
2018-02-14T08:50:50.244Z,3.96
2018-02-14T08:51:55.081Z,3.81
2018-02-14T08:53:01.524Z,3.42
2018-02-14T08:54:06.820Z,3.65
2018-02-14T08:55:11.764Z,3.87
2018-02-14T08:56:17.510Z,3.96
2018-02-14T08:57:23.347Z,3.93
2018-02-14T08:58:28.325Z,4.15
2018-02-14T08:59:33.581Z,4.22
2018-02-14T09:00:37.822Z,4.08
2018-02-14T09:01:42.751Z,4.02
2018-02-14T09:02:47.868Z,4.05
2018-02-14T09:03:53.331Z,4.06
2018-02-14T09:05:04.137Z,4.22
2018-02-14T09:06:11.992Z,4.20
2018-02-14T09:07:17.779Z,3.91
2018-02-14T09:08:23.295Z,3.48
2018-02-14T09:09:39.634Z,3.59
2018-02-14T09:10:44.965Z,4.03
2018-02-14T09:11:51.565Z,4.26
2018-02-14T09:12:56.459Z,4.37
2018-02-14T09:14:01.850Z,4.36
2018-02-14T09:15:07.352Z,4.34
2018-02-14T09:16:12.492Z,4.12
2018-02-14T09:17:27.232Z,4.32
2018-02-14T09:18:32.732Z,4.34
2018-02-14T09:19:37.821Z,4.25
2018-02-14T09:20:43.903Z,4.02
2018-02-14T09:21:49.826Z,3.85
2018-02-14T09:22:54.745Z,3.81
2018-02-14T09:24:00.185Z,3.66
2018-02-14T09:25:05.107Z,3.64
2018-02-14T09:26:09.331Z,3.92
2018-02-14T09:27:14.062Z,3.94
2018-02-14T09:28:18.848Z,4.06
2018-02-14T09:29:23.780Z,4.17
2018-02-14T09:30:28.755Z,4.31
2018-02-14T09:31:33.545Z,4.27
2018-02-14T09:32:37.790Z,4.41
2018-02-14T09:33:42.832Z,4.27
2018-02-14T09:34:47.632Z,4.19
2018-02-14T09:35:52.762Z,4.49
2018-02-14T09:36:58.273Z,4.75
2018-02-14T09:38:03.219Z,4.93
2018-02-14T09:39:08.799Z,4.92
2018-02-14T09:40:16.845Z,4.94
2018-02-14T09:41:23.684Z,4.74
2018-02-14T09:42:28.482Z,4.70
2018-02-14T09:43:35.011Z,4.81
2018-02-14T09:44:39.770Z,4.72
2018-02-14T09:45:47.227Z,4.82
2018-02-14T09:46:52.238Z,4.78
2018-02-14T09:47:56.586Z,4.84
2018-02-14T09:49:03.284Z,4.90
2018-02-14T09:50:09.364Z,4.98
2018-02-14T09:51:13.750Z,4.95
2018-02-14T09:52:21.036Z,5.03
2018-02-14T09:53:26.901Z,5.08
2018-02-14T09:54:35.640Z,4.90
2018-02-14T09:55:40.802Z,4.66
2018-02-14T09:56:49.110Z,4.85
2018-02-14T09:57:53.951Z,4.73
2018-02-14T09:58:59.441Z,5.06
2018-02-14T10:00:07.526Z,5.41
2018-02-14T10:02:25.275Z,5.80
2018-02-14T10:03:30.869Z,5.78
2018-02-14T10:04:38.464Z,5.48
2018-02-14T10:05:44.185Z,5.26
2018-02-14T10:06:53.182Z,5.09
2018-02-14T10:07:58.900Z,5.12
2018-02-14T10:09:04.826Z,5.19
2018-02-14T10:10:10.328Z,5.40
2018-02-14T10:11:15.724Z,5.54
2018-02-14T10:12:20.866Z,5.54
2018-02-14T10:13:27.650Z,5.24
2018-02-14T10:14:33.201Z,5.21
2018-02-14T10:15:39.160Z,5.25
2018-02-14T10:16:45.060Z,5.53
2018-02-14T10:17:51.131Z,5.78
2018-02-14T10:18:58.688Z,5.74
2018-02-14T10:20:05.046Z,5.62
2018-02-14T10:21:10.578Z,5.69
2018-02-14T10:22:17.860Z,5.47
2018-02-14T10:23:22.670Z,5.21
2018-02-14T10:24:26.925Z,5.23
2018-02-14T10:25:32.482Z,5.43
2018-02-14T10:26:38.169Z,5.54
2018-02-14T10:27:42.330Z,5.58
2018-02-14T10:28:48.849Z,5.71
2018-02-14T10:29:53.598Z,5.66
2018-02-14T10:30:58.932Z,5.89
2018-02-14T10:32:04.521Z,6.06
2018-02-14T10:33:09.479Z,6.30
2018-02-14T10:34:16.552Z,6.14
2018-02-14T10:35:23.468Z,6.18
2018-02-14T10:36:28.969Z,6.22
2018-02-14T10:37:33.764Z,6.28
2018-02-14T10:38:38.937Z,6.43
2018-02-14T10:40:54.652Z,6.31
2018-02-14T10:41:59.479Z,6.37
2018-02-14T10:43:07.850Z,6.26
2018-02-14T10:44:12.793Z,6.24
2018-02-14T10:45:19.918Z,6.25
2018-02-14T10:46:25.009Z,6.17
2018-02-14T10:47:29.851Z,6.55
2018-02-14T10:48:34.081Z,6.62
2018-02-14T10:49:38.927Z,6.85
2018-02-14T10:52:02.616Z,6.80
2018-02-14T10:53:08.642Z,6.43
2018-02-14T10:54:12.932Z,6.17
2018-02-14T10:55:19.364Z,6.32
2018-02-14T10:56:25.651Z,6.37
2018-02-14T10:57:31.098Z,6.59
2018-02-14T10:58:35.958Z,6.66
2018-02-14T10:59:40.768Z,6.72
2018-02-14T11:00:51.207Z,7.03
2018-02-14T11:02:00.407Z,7.23
2018-02-14T11:03:10.531Z,7.07
2018-02-14T11:04:19.843Z,7.37
2018-02-14T11:05:28.733Z,7.24
2018-02-14T11:06:36.609Z,6.95
2018-02-14T11:08:51.187Z,6.93
2018-02-14T11:09:56.058Z,6.93
2018-02-14T11:11:00.234Z,6.91
2018-02-14T11:12:04.802Z,6.76
2018-02-14T11:13:10.269Z,6.65
2018-02-14T11:14:14.495Z,6.96
2018-02-14T11:15:21.493Z,7.33
2018-02-14T11:16:26.907Z,7.54
2018-02-14T11:17:31.843Z,7.33
2018-02-14T11:18:36.658Z,7.15
2018-02-14T11:19:40.875Z,7.24
2018-02-14T11:20:47.392Z,7.15
2018-02-14T11:21:51.968Z,6.92
2018-02-14T11:22:56.836Z,6.65
2018-02-14T11:24:01.827Z,6.57
2018-02-14T11:25:07.696Z,6.80
2018-02-14T11:26:12.685Z,7.04
2018-02-14T11:27:17.898Z,6.68
2018-02-14T11:28:23.543Z,6.67
2018-02-14T11:29:27.727Z,6.66
2018-02-14T11:30:32.160Z,6.68
2018-02-14T11:31:37.024Z,6.63
2018-02-14T11:32:41.811Z,6.68
2018-02-14T11:33:56.407Z,6.43
2018-02-14T11:35:00.735Z,6.31
2018-02-14T11:36:05.366Z,6.37
2018-02-14T11:37:10.314Z,6.57
2018-02-14T11:38:14.493Z,6.84
2018-02-14T11:39:20.195Z,7.06
2018-02-14T11:40:24.844Z,7.41
2018-02-14T11:41:30.426Z,7.33
2018-02-14T11:42:34.617Z,7.26
2018-02-14T11:43:39.508Z,7.27
2018-02-14T11:44:43.752Z,7.47
2018-02-14T11:45:49.438Z,7.26
2018-02-14T11:46:54.617Z,7.02
2018-02-14T11:48:00.342Z,7.13
2018-02-14T11:49:05.951Z,7.33
2018-02-14T11:50:11.490Z,7.26
2018-02-14T11:51:16.416Z,7.15
2018-02-14T11:52:32.524Z,7.01
2018-02-14T11:53:39.274Z,7.23
2018-02-14T11:54:51.775Z,7.48
2018-02-14T11:55:56.596Z,7.16
2018-02-14T11:57:01.554Z,7.20
2018-02-14T11:58:06.540Z,7.14
2018-02-14T11:59:10.895Z,7.26
2018-02-14T12:00:18.313Z,7.43
2018-02-14T12:01:22.562Z,7.87
2018-02-14T12:02:28.862Z,7.48
2018-02-14T12:03:35.081Z,7.05
2018-02-14T12:04:40.844Z,6.79
2018-02-14T12:05:45.695Z,7.12
2018-02-14T12:06:50.512Z,7.38
2018-02-14T12:07:55.491Z,7.06
2018-02-14T12:09:00.584Z,7.42
2018-02-14T12:10:05.927Z,7.20
2018-02-14T12:11:11.440Z,7.46
2018-02-14T12:12:17.518Z,7.40
2018-02-14T12:13:22.600Z,7.56
2018-02-14T12:14:28.172Z,7.42
2018-02-14T12:15:33.209Z,7.24
2018-02-14T12:16:39.224Z,7.41
2018-02-14T12:17:44.408Z,7.23
2018-02-14T12:18:55.012Z,7.55
2018-02-14T12:20:00.166Z,7.30
2018-02-14T12:21:05.465Z,7.23
2018-02-14T12:22:11.276Z,7.30
2018-02-14T12:23:16.902Z,7.30
2018-02-14T12:24:22.227Z,7.33
2018-02-14T12:26:26.536Z,7.99
2018-02-14T12:27:30.958Z,7.63
2018-02-14T12:28:36.235Z,7.41
2018-02-14T12:29:40.573Z,7.16
2018-02-14T12:30:44.759Z,6.52
2018-02-14T12:31:49.971Z,6.29
2018-02-14T12:32:54.947Z,6.53
2018-02-14T12:33:59.172Z,6.70
2018-02-14T12:35:04.982Z,7.10
2018-02-14T12:36:11.150Z,7.46
2018-02-14T12:37:15.431Z,6.96
2018-02-14T12:38:20.094Z,6.70
2018-02-14T12:39:24.307Z,6.76
2018-02-14T12:40:28.622Z,7.06
2018-02-14T12:41:33.075Z,7.15
2018-02-14T12:42:37.451Z,6.80
2018-02-14T12:43:41.848Z,6.13
2018-02-14T12:44:51.560Z,6.76
2018-02-14T12:45:56.393Z,7.11
2018-02-14T12:47:00.933Z,7.08
2018-02-14T12:48:05.254Z,7.17
2018-02-14T12:49:09.821Z,7.12
2018-02-14T12:50:14.182Z,6.92
2018-02-14T12:51:18.459Z,6.78
2018-02-14T12:52:22.913Z,6.78
2018-02-14T12:53:27.282Z,6.88
2018-02-14T12:54:31.673Z,6.89
2018-02-14T12:55:35.925Z,6.80
2018-02-14T12:56:40.569Z,6.76
2018-02-14T12:57:44.921Z,7.09
2018-02-14T12:58:50.333Z,7.09
2018-02-14T12:59:55.613Z,7.26
2018-02-14T13:01:00.374Z,7.38
2018-02-14T13:02:04.850Z,7.13
2018-02-14T13:03:09.676Z,6.92
2018-02-14T13:04:14.315Z,7.06
2018-02-14T13:05:18.943Z,7.05
2018-02-14T13:06:23.233Z,6.92
2018-02-14T13:07:27.417Z,6.85
2018-02-14T13:08:32.090Z,6.90
2018-02-14T13:09:36.753Z,7.50
2018-02-14T13:10:41.467Z,7.20
2018-02-14T13:11:46.775Z,7.44
2018-02-14T13:12:51.295Z,7.47
2018-02-14T13:13:55.559Z,8.10
2018-02-14T13:15:00.216Z,7.76
2018-02-14T13:16:04.795Z,7.73
2018-02-14T13:17:11.992Z,7.78
2018-02-14T13:18:17.904Z,8.29
2018-02-14T13:19:23.257Z,7.99
2018-02-14T13:20:29.142Z,8.41
2018-02-14T13:21:36.305Z,7.95
2018-02-14T13:22:44.125Z,7.54
2018-02-14T13:23:49.883Z,7.05
2018-02-14T13:24:55.134Z,7.63
2018-02-14T13:26:01.356Z,7.66
2018-02-14T13:27:06.479Z,7.52
2018-02-14T13:28:12.787Z,7.15
2018-02-14T13:29:19.773Z,7.16
2018-02-14T13:30:26.562Z,6.72
2018-02-14T13:31:33.710Z,6.98
2018-02-14T13:32:39.029Z,7.15
2018-02-14T13:33:46.386Z,7.08
2018-02-14T13:34:52.215Z,7.35
2018-02-14T13:35:57.196Z,6.93
2018-02-14T13:37:01.981Z,6.66
2018-02-14T13:38:06.667Z,7.45
2018-02-14T13:39:12.245Z,7.51
2018-02-14T13:40:17.096Z,6.91
2018-02-14T13:41:25.095Z,6.94
2018-02-14T13:42:30.907Z,7.03
2018-02-14T13:43:36.068Z,6.90
2018-02-14T13:44:42.412Z,7.40
2018-02-14T13:45:48.904Z,7.52
2018-02-14T13:46:53.773Z,7.80
2018-02-14T13:48:00.965Z,7.54
2018-02-14T13:49:06.114Z,6.97
2018-02-14T13:50:12.649Z,7.31
2018-02-14T13:51:17.748Z,6.81
2018-02-14T13:52:22.940Z,7.10
2018-02-14T13:53:28.662Z,7.47
2018-02-14T13:54:35.396Z,7.23
2018-02-14T13:55:41.042Z,7.32
2018-02-14T13:56:48.606Z,7.26
2018-02-14T13:57:55.206Z,7.05
2018-02-14T13:59:03.696Z,6.88
2018-02-14T14:00:09.764Z,6.65
2018-02-14T14:01:15.972Z,7.25
2018-02-14T14:02:24.837Z,7.90
2018-02-14T14:03:30.240Z,7.59
2018-02-14T14:04:36.096Z,7.67
2018-02-14T14:05:44.022Z,7.69
2018-02-14T14:06:50.690Z,7.36
2018-02-14T14:07:58.926Z,7.04
2018-02-14T14:09:04.182Z,7.22
2018-02-14T14:10:11.070Z,7.27
2018-02-14T14:11:17.419Z,7.08
2018-02-14T14:12:23.395Z,7.65
2018-02-14T14:13:28.431Z,7.40
2018-02-14T14:14:38.304Z,7.36
2018-02-14T14:15:43.791Z,8.19
2018-02-14T14:16:51.112Z,7.91
2018-02-14T14:17:56.739Z,7.70
2018-02-14T14:19:02.703Z,7.27
2018-02-14T14:20:09.764Z,6.78
2018-02-14T14:21:16.033Z,6.80
2018-02-14T14:22:22.937Z,7.00
2018-02-14T14:23:31.410Z,7.48
2018-02-14T14:24:40.142Z,7.87
2018-02-14T14:25:45.978Z,7.52
2018-02-14T14:26:53.768Z,7.12
2018-02-14T14:28:00.693Z,7.43